EDFM

Mannheim City Airport

Mannheim, Germany
METAR EDFM 201420Z VRB05KT CAVOK 31/07 Q1011
Observed Flight Rules
Jul-20 @ 14:20 UTC (16 minutes ago) Visual Flight Rules
Wind Visibility Clouds
Variable at 5 knots 10,000+ meters
  • Clear skies
Temperatures Readings
Current 31°C / 88°F
Dewpoint 7°C / 45°F
Humidity 22%
Altimeter 29.85" Hg
Pressure 1011 hPa
Elevation 100
METAR EDFM 201420Z VRB05KT CAVOK 31/07 Q1011
Observed Flight Rules
Jul-20 @ 14:20 UTC
(16 minutes ago)
VFR
Wind Visibility
Variable at 5 knots 10,000+ meters
Clouds
  • Clear skies
Temperature Dewpoint
31°C / 88°F 7°C / 45°F
Humidity Altimeter Pressure
22% 29.85" Hg 1011 hPa